RCDI weather

Longtan Air Base
Longtan Township, Taoyuan County, Taiwan

Public forecast

Using degrees Celsius for public forecast. Weather courtesy of forecast.io.

Closest aviation weather report (METAR) to Longtan Air Base

Closest report is Taiwan Taoyuan International Airport, 13.4 nm (24.8 km) N. Retrieved 2019/10/19 08:30 UTC (20 minutes ago):

RCTP 190830Z 05017KT 9999 FEW012 BKN025 BKN040 24/19 Q1017 NOSIG RMK A3005

Closest aviation forecast (TAF) to Longtan Air Base

Closest forecast is Taiwan Taoyuan International Airport, 13.4 nm (24.8 km) N. Retrieved 2019/10/19 06:00 UTC (3 hours ago):

TAF RCTP 190500Z 1906/2012 04016KT 9999 FEW012 SCT025 BKN035 TEMPO 1906/1910 05022G32KT BECMG 1912/1914 07012KT TEMPO 1918/1924 SCT010 BKN015 BKN030 TEMPO 2002/2008 05020KT SCT008 BKN015 BKN030